LFOP/URO METAR and TAF weather

Enter ICAO airport designator
Station Type Date Time Source
LFOP METAR 2021/08/05 03:30 UTC NOAA

LFOP 050330Z AUTO 31003KT 7000 NSC 14/13 Q1011


Station Type Date Time Source
LFOP Decoded METAR 2021/08/05 03:30 UTC NOAA

Rouen, France (LFOP) 49-23N 001-11E 157M
Aug 04, 2021 - 11:30 PM EDT / 2021.08.05 0330 UTC
Wind: from the NW (310 degrees) at 3 MPH (3 KT):0
Visibility: 4 mile(s):0
Temperature: 57 F (14 C)
Dew Point: 55 F (13 C)
Relative Humidity: 93%
Pressure (altimeter): 29.85 in. Hg (1011 hPa)
ob: LFOP 050330Z AUTO 31003KT 7000 NSC 14/13 Q1011
cycle: 3

Station Type Date Time Source
LFOP TAF 2021/08/04 20:09 UTC NOAA

TAF TAF LFOP 042000Z 0420/0518 CNL

Example: see airport list